Terminal Aerodrome Forecast
Issued by NWS

Current Version | Previous Version | Text Only | Print | Product List | Glossary Off
Versions: 1 2 3 4 5 6 7 8 9 10 11 12 13 14

974
FTUS44 KSJT 292336
TAFBBD
TAF
KBBD 292336Z 3000/3024 12009KT P6SM FEW060 BKN150
     FM300900 14006KT P6SM BKN025
     FM302100 16009KT P6SM BKN040
      AMD NOT SKED=

USA.gov is the U.S. government's official web portal to all federal, state and local government web resources and services.